createdAt,value
2023-10-29T00:00:46.693Z,0.00
2023-10-29T00:01:46.797Z,0.00
2023-10-29T00:02:47.653Z,0.00
2023-10-29T00:03:46.692Z,0.00
2023-10-29T00:04:46.858Z,0.00
2023-10-29T00:05:46.720Z,0.00
2023-10-29T00:06:46.563Z,0.00
2023-10-29T00:07:47.562Z,0.00
2023-10-29T00:08:46.593Z,0.00
2023-10-29T00:09:46.548Z,0.00
2023-10-29T00:10:46.582Z,0.00
2023-10-29T00:11:46.572Z,0.00
2023-10-29T00:12:47.534Z,0.00
2023-10-29T00:13:48.206Z,0.00
2023-10-29T00:14:46.794Z,0.00
2023-10-29T00:15:46.476Z,0.00
2023-10-29T00:16:46.464Z,0.00
2023-10-29T00:17:46.538Z,0.00
2023-10-29T00:18:47.383Z,0.00
2023-10-29T00:19:46.448Z,0.00
2023-10-29T00:20:46.485Z,0.00
2023-10-29T00:21:46.822Z,0.00
2023-10-29T00:22:46.436Z,0.00
2023-10-29T00:23:47.334Z,0.00
2023-10-29T00:24:46.532Z,0.00
2023-10-29T00:25:46.356Z,0.00
2023-10-29T00:26:46.419Z,0.00
2023-10-29T00:27:46.622Z,0.00
2023-10-29T00:28:47.279Z,0.00
2023-10-29T00:29:46.344Z,0.00
2023-10-29T00:30:46.303Z,0.00
2023-10-29T00:31:46.257Z,0.00
2023-10-29T00:32:46.325Z,0.00
2023-10-29T00:33:47.173Z,0.00
2023-10-29T00:34:46.468Z,0.00
2023-10-29T00:35:46.231Z,0.00
2023-10-29T00:36:46.255Z,0.00
2023-10-29T00:37:46.253Z,0.00
2023-10-29T00:38:47.222Z,0.00
2023-10-29T00:39:46.490Z,0.00
2023-10-29T00:40:46.142Z,0.00
2023-10-29T00:41:46.444Z,0.00
2023-10-29T00:42:46.104Z,0.00
2023-10-29T00:43:46.116Z,0.00
2023-10-29T00:44:47.259Z,0.00
2023-10-29T00:45:46.113Z,0.00
2023-10-29T00:46:46.086Z,0.00
2023-10-29T00:47:46.123Z,0.00
2023-10-29T00:48:46.067Z,0.00
2023-10-29T00:49:46.994Z,0.00
2023-10-29T00:50:46.253Z,0.00
2023-10-29T00:51:46.243Z,0.00
2023-10-29T00:52:45.976Z,0.00
2023-10-29T00:53:46.135Z,0.00
2023-10-29T00:54:46.155Z,0.00
2023-10-29T00:55:46.975Z,0.00
2023-10-29T00:56:45.964Z,0.00
2023-10-29T00:57:46.002Z,0.00
2023-10-29T00:58:45.958Z,0.00
2023-10-29T00:59:45.927Z,0.00
2023-10-29T01:00:46.893Z,0.00
2023-10-29T01:01:46.165Z,0.00
2023-10-29T01:02:45.969Z,0.00
2023-10-29T01:03:45.970Z,0.00
2023-10-29T01:04:46.028Z,0.00
2023-10-29T01:05:46.808Z,0.00
2023-10-29T01:06:45.849Z,0.00
2023-10-29T01:07:45.801Z,0.00
2023-10-29T01:08:46.064Z,0.00
2023-10-29T01:09:45.854Z,0.00
2023-10-29T01:10:45.840Z,0.00
2023-10-29T01:11:46.823Z,0.00
2023-10-29T01:12:45.786Z,0.00
2023-10-29T01:13:45.725Z,0.00
2023-10-29T01:14:45.992Z,0.00
2023-10-29T01:15:45.813Z,0.00
2023-10-29T01:16:46.685Z,0.00
2023-10-29T01:17:45.813Z,0.00
2023-10-29T01:18:45.740Z,0.00
2023-10-29T01:19:45.757Z,0.00
2023-10-29T01:20:45.772Z,0.00
2023-10-29T01:21:45.655Z,0.00
2023-10-29T01:22:46.601Z,0.00
2023-10-29T01:23:45.687Z,0.00
2023-10-29T01:24:45.751Z,0.00
2023-10-29T01:25:45.562Z,0.00
2023-10-29T01:26:45.763Z,0.00
2023-10-29T01:27:45.590Z,0.00
2023-10-29T01:28:47.185Z,0.00
2023-10-29T01:29:45.685Z,0.00
2023-10-29T01:30:45.522Z,0.00
2023-10-29T01:31:45.480Z,0.00
2023-10-29T01:32:45.673Z,0.00
2023-10-29T01:33:46.403Z,0.00
2023-10-29T01:34:45.729Z,0.00
2023-10-29T01:35:45.470Z,0.00
2023-10-29T01:36:45.513Z,0.00
2023-10-29T01:37:45.451Z,0.00
2023-10-29T01:38:46.416Z,0.00
2023-10-29T01:39:45.529Z,0.00
2023-10-29T01:40:45.528Z,0.00
2023-10-29T01:41:45.518Z,0.00
2023-10-29T01:42:45.355Z,0.00
2023-10-29T01:43:46.258Z,0.00
2023-10-29T01:44:45.399Z,0.00
2023-10-29T01:45:45.355Z,0.00
2023-10-29T01:46:45.366Z,0.00
2023-10-29T01:47:45.581Z,0.00
2023-10-29T01:48:45.306Z,0.00
2023-10-29T01:49:46.308Z,0.00
2023-10-29T01:50:45.328Z,0.00
2023-10-29T01:51:45.558Z,0.00
2023-10-29T01:52:45.301Z,0.00
2023-10-29T01:53:45.337Z,0.00
2023-10-29T01:54:45.541Z,0.00
2023-10-29T01:55:46.210Z,0.00
2023-10-29T01:56:45.258Z,0.00
2023-10-29T01:57:45.416Z,0.00
2023-10-29T01:58:45.202Z,0.00
2023-10-29T01:59:45.245Z,0.00
2023-10-29T02:00:46.278Z,0.00
2023-10-29T02:01:45.162Z,0.00
2023-10-29T02:02:45.308Z,0.00
2023-10-29T02:03:45.186Z,0.00
2023-10-29T02:04:45.083Z,0.00
2023-10-29T02:05:45.122Z,0.00
2023-10-29T02:06:45.971Z,0.00
2023-10-29T02:07:45.189Z,0.00
2023-10-29T02:08:45.105Z,0.00
2023-10-29T02:09:45.083Z,0.00
2023-10-29T02:10:45.051Z,0.00
2023-10-29T02:11:45.041Z,0.00
2023-10-29T02:12:45.926Z,0.00
2023-10-29T02:13:45.053Z,0.00
2023-10-29T02:14:45.208Z,0.00
2023-10-29T02:15:44.956Z,0.00
2023-10-29T02:16:44.942Z,0.00
2023-10-29T02:17:45.879Z,0.00
2023-10-29T02:18:44.904Z,0.00
2023-10-29T02:19:44.953Z,0.00
2023-10-29T02:20:44.985Z,0.00
2023-10-29T02:21:45.071Z,0.00
2023-10-29T02:22:45.862Z,0.00
2023-10-29T02:23:44.860Z,0.00
2023-10-29T02:24:44.916Z,0.00
2023-10-29T02:25:44.809Z,0.00
2023-10-29T02:26:44.865Z,0.00
2023-10-29T02:27:45.744Z,0.00
2023-10-29T02:28:44.841Z,0.00
2023-10-29T02:29:45.044Z,0.00
2023-10-29T02:30:44.750Z,0.00
2023-10-29T02:31:45.012Z,0.00
2023-10-29T02:32:45.759Z,0.00
2023-10-29T02:33:44.771Z,0.00
2023-10-29T02:34:44.763Z,0.00
2023-10-29T02:35:44.843Z,0.00
2023-10-29T02:36:44.840Z,0.00
2023-10-29T02:37:45.665Z,0.00
2023-10-29T02:38:44.820Z,0.00
2023-10-29T02:39:44.625Z,0.00
2023-10-29T02:40:44.715Z,0.00
2023-10-29T02:41:44.711Z,0.00
2023-10-29T02:42:45.543Z,0.00
2023-10-29T02:43:44.644Z,0.00
2023-10-29T02:44:44.721Z,0.00
2023-10-29T02:45:44.653Z,0.00
2023-10-29T02:46:44.675Z,0.00
2023-10-29T02:47:44.708Z,0.00
2023-10-29T02:48:45.443Z,0.00
2023-10-29T02:49:44.579Z,0.00
2023-10-29T02:50:44.910Z,0.00
2023-10-29T02:51:44.590Z,0.00
2023-10-29T02:52:44.598Z,0.00
2023-10-29T02:53:44.507Z,0.00
2023-10-29T02:54:45.359Z,0.00
2023-10-29T02:55:44.831Z,0.00
2023-10-29T02:56:44.582Z,0.00
2023-10-29T02:57:44.643Z,0.00
2023-10-29T02:58:44.391Z,0.00
2023-10-29T02:59:45.474Z,0.00
2023-10-29T03:00:44.406Z,0.00
2023-10-29T03:01:44.352Z,0.00
2023-10-29T03:02:44.570Z,0.00
2023-10-29T03:03:44.469Z,0.00
2023-10-29T03:04:45.296Z,0.00
2023-10-29T03:05:54.208Z,0.00
2023-10-29T03:06:45.805Z,0.00
2023-10-29T03:07:44.417Z,0.00
2023-10-29T03:08:44.362Z,0.00
2023-10-29T03:09:45.335Z,0.00
2023-10-29T03:10:44.289Z,0.00
2023-10-29T03:11:44.255Z,0.00
2023-10-29T03:12:44.453Z,0.00
2023-10-29T03:13:44.233Z,0.00
2023-10-29T03:14:44.344Z,0.00
2023-10-29T03:15:45.163Z,0.00
2023-10-29T03:16:44.213Z,0.00
2023-10-29T03:17:44.467Z,0.00
2023-10-29T03:18:44.186Z,0.00
2023-10-29T03:19:44.143Z,0.00
2023-10-29T03:20:46.753Z,0.00
2023-10-29T03:21:45.088Z,0.00
2023-10-29T03:22:44.175Z,0.00
2023-10-29T03:23:44.212Z,0.00
2023-10-29T03:24:44.072Z,0.00
2023-10-29T03:25:44.190Z,0.00
2023-10-29T03:26:44.088Z,0.00
2023-10-29T03:27:45.011Z,0.00
2023-10-29T03:28:44.093Z,0.00
2023-10-29T03:29:44.141Z,0.00
2023-10-29T03:30:44.170Z,0.00
2023-10-29T03:31:44.006Z,0.00
2023-10-29T03:32:45.151Z,0.00
2023-10-29T03:33:43.970Z,0.00
2023-10-29T03:34:44.100Z,0.00
2023-10-29T03:35:44.001Z,0.00
2023-10-29T03:36:43.990Z,0.00
2023-10-29T03:37:44.866Z,0.00
2023-10-29T03:38:43.925Z,0.00
2023-10-29T03:39:43.927Z,0.00
2023-10-29T03:40:44.014Z,0.00
2023-10-29T03:41:43.931Z,0.00
2023-10-29T03:42:44.822Z,0.00
2023-10-29T03:43:43.854Z,0.00
2023-10-29T03:44:43.905Z,0.00
2023-10-29T03:45:43.848Z,0.00
2023-10-29T03:46:43.983Z,0.00
2023-10-29T03:47:44.112Z,0.00
2023-10-29T03:48:44.815Z,0.00
2023-10-29T03:49:43.790Z,0.00
2023-10-29T03:50:43.793Z,0.00
2023-10-29T03:51:43.755Z,0.00
2023-10-29T03:52:43.756Z,0.00
2023-10-29T03:53:44.771Z,0.00
2023-10-29T03:54:43.774Z,0.00
2023-10-29T03:55:43.691Z,0.00
2023-10-29T03:56:43.706Z,0.00
2023-10-29T03:57:43.692Z,0.00
2023-10-29T03:58:50.054Z,0.00
2023-10-29T03:59:43.668Z,0.00
2023-10-29T04:00:43.649Z,0.00
2023-10-29T04:01:43.630Z,0.00
2023-10-29T04:02:43.999Z,0.00
2023-10-29T04:03:44.794Z,0.00
2023-10-29T04:04:47.976Z,0.00
2023-10-29T04:05:45.266Z,0.00
2023-10-29T04:06:43.592Z,0.00
2023-10-29T04:07:43.603Z,0.00
2023-10-29T04:08:44.530Z,0.00
2023-10-29T04:09:43.495Z,0.00
2023-10-29T04:10:43.517Z,0.00
2023-10-29T04:11:43.675Z,0.00
2023-10-29T04:12:43.465Z,0.00
2023-10-29T04:13:44.367Z,0.00
2023-10-29T04:14:43.572Z,0.00
2023-10-29T04:15:43.546Z,0.00
2023-10-29T04:16:43.480Z,0.00
2023-10-29T04:17:43.506Z,0.00
2023-10-29T04:18:44.326Z,0.00
2023-10-29T04:19:43.414Z,0.00
2023-10-29T04:20:43.427Z,0.00
2023-10-29T04:21:43.421Z,0.00
2023-10-29T04:22:43.367Z,0.00
2023-10-29T04:23:43.344Z,0.00
2023-10-29T04:24:44.302Z,0.00
2023-10-29T04:25:43.344Z,0.00
2023-10-29T04:26:43.448Z,0.00
2023-10-29T04:27:43.256Z,0.00
2023-10-29T04:28:43.357Z,0.00
2023-10-29T04:29:44.252Z,0.00
2023-10-29T04:30:43.435Z,0.00
2023-10-29T04:31:43.259Z,0.00
2023-10-29T04:32:43.231Z,0.00
2023-10-29T04:33:43.572Z,0.00
2023-10-29T04:34:43.200Z,0.00
2023-10-29T04:35:44.206Z,0.00
2023-10-29T04:36:43.231Z,0.00
2023-10-29T04:37:43.162Z,0.00
2023-10-29T04:38:43.216Z,0.00
2023-10-29T04:39:43.121Z,0.00
2023-10-29T04:40:44.190Z,0.00
2023-10-29T04:41:43.394Z,0.00
2023-10-29T04:42:43.116Z,0.00
2023-10-29T04:43:43.166Z,0.00
2023-10-29T04:44:43.222Z,0.00
2023-10-29T04:45:43.142Z,0.00
2023-10-29T04:46:44.002Z,0.00
2023-10-29T04:47:43.128Z,0.00
2023-10-29T04:48:43.101Z,0.00
2023-10-29T04:49:43.231Z,0.00
2023-10-29T04:50:43.141Z,0.00
2023-10-29T04:51:43.097Z,0.00
2023-10-29T04:52:43.963Z,0.00
2023-10-29T04:53:42.936Z,0.00
2023-10-29T04:54:42.919Z,0.00
2023-10-29T04:55:42.996Z,0.00
2023-10-29T04:56:43.276Z,0.00
2023-10-29T04:57:43.916Z,0.00
2023-10-29T04:58:42.940Z,0.00
2023-10-29T04:59:42.937Z,0.00
2023-10-29T05:00:42.909Z,0.00
2023-10-29T05:01:42.893Z,0.00
2023-10-29T05:02:45.013Z,0.00
2023-10-29T05:03:42.885Z,0.00
2023-10-29T05:04:42.843Z,0.00
2023-10-29T05:05:42.860Z,0.00
2023-10-29T05:06:42.815Z,0.00
2023-10-29T05:07:42.885Z,0.00
2023-10-29T05:08:43.683Z,0.00
2023-10-29T05:09:42.797Z,0.00
2023-10-29T05:10:42.751Z,0.00
2023-10-29T05:11:42.818Z,0.00
2023-10-29T05:12:42.720Z,0.00
2023-10-29T05:13:43.642Z,0.00
2023-10-29T05:14:42.724Z,0.00
2023-10-29T05:15:42.684Z,0.00
2023-10-29T05:16:42.683Z,0.00
2023-10-29T05:17:42.776Z,0.00
2023-10-29T05:18:43.693Z,0.00
2023-10-29T05:19:42.678Z,0.00
2023-10-29T05:20:42.622Z,0.00
2023-10-29T05:21:42.705Z,0.00
2023-10-29T05:22:42.611Z,0.00
2023-10-29T05:23:42.673Z,0.00
2023-10-29T05:24:43.622Z,0.00
2023-10-29T05:25:42.613Z,0.00
2023-10-29T05:26:42.566Z,0.00
2023-10-29T05:27:42.545Z,0.00
2023-10-29T05:28:42.610Z,0.00
2023-10-29T05:29:42.700Z,0.00
2023-10-29T05:30:43.520Z,0.00
2023-10-29T05:31:42.505Z,0.00
2023-10-29T05:32:42.519Z,0.00
2023-10-29T05:33:42.435Z,0.00
2023-10-29T05:34:42.421Z,0.00
2023-10-29T05:35:42.513Z,0.00
2023-10-29T05:36:43.451Z,0.00
2023-10-29T05:37:42.391Z,4.00
2023-10-29T05:38:42.385Z,4.00
2023-10-29T05:39:42.362Z,0.00
2023-10-29T05:40:42.421Z,4.00
2023-10-29T05:41:42.397Z,4.00
2023-10-29T05:42:43.291Z,8.00
2023-10-29T05:43:42.331Z,4.00
2023-10-29T05:44:42.414Z,8.00
2023-10-29T05:45:42.514Z,4.00
2023-10-29T05:46:42.329Z,8.00
2023-10-29T05:47:43.438Z,8.00
2023-10-29T05:48:42.249Z,12.00
2023-10-29T05:49:42.301Z,8.00
2023-10-29T05:50:42.349Z,12.00
2023-10-29T05:51:42.397Z,12.00
2023-10-29T05:52:42.297Z,16.00
2023-10-29T05:53:43.173Z,16.00
2023-10-29T05:54:42.185Z,20.00
2023-10-29T05:55:42.177Z,20.00
2023-10-29T05:56:42.185Z,20.00
2023-10-29T05:57:42.297Z,24.00
2023-10-29T05:58:43.112Z,24.00
2023-10-29T05:59:42.339Z,24.00
2023-10-29T06:00:42.144Z,32.00
2023-10-29T06:01:42.195Z,28.00
2023-10-29T06:02:42.126Z,32.00
2023-10-29T06:03:43.309Z,36.00
2023-10-29T06:04:42.154Z,40.00
2023-10-29T06:05:42.066Z,40.00
2023-10-29T06:06:42.024Z,44.00
2023-10-29T06:07:42.044Z,44.00
2023-10-29T06:08:43.047Z,48.00
2023-10-29T06:09:42.016Z,44.00
2023-10-29T06:10:42.101Z,48.00
2023-10-29T06:11:42.113Z,48.00
2023-10-29T06:12:42.131Z,48.00
2023-10-29T06:13:41.993Z,68.00
2023-10-29T06:14:42.934Z,100.00
2023-10-29T06:15:41.917Z,96.00
2023-10-29T06:16:41.991Z,104.00
2023-10-29T06:17:41.938Z,108.00
2023-10-29T06:18:41.981Z,100.00
2023-10-29T06:19:41.889Z,112.00
2023-10-29T06:20:42.864Z,116.00
2023-10-29T06:21:41.812Z,128.00
2023-10-29T06:22:41.843Z,140.00
2023-10-29T06:23:41.890Z,144.00
2023-10-29T06:24:41.794Z,140.00
2023-10-29T06:25:42.794Z,148.00
2023-10-29T06:26:41.868Z,156.00
2023-10-29T06:27:41.830Z,176.00
2023-10-29T06:28:41.900Z,184.00
2023-10-29T06:29:41.839Z,196.00
2023-10-29T06:30:41.734Z,204.00
2023-10-29T06:31:42.770Z,204.00
2023-10-29T06:32:41.901Z,180.00
2023-10-29T06:33:41.984Z,160.00
2023-10-29T06:34:41.747Z,160.00
2023-10-29T06:35:41.829Z,176.00
2023-10-29T06:36:41.700Z,208.00
2023-10-29T06:37:42.678Z,208.00
2023-10-29T06:38:41.761Z,220.00
2023-10-29T06:39:41.646Z,236.00
2023-10-29T06:40:41.599Z,272.00
2023-10-29T06:41:41.647Z,292.00
2023-10-29T06:42:41.653Z,296.00
2023-10-29T06:43:42.493Z,284.00
2023-10-29T06:44:41.658Z,276.00
2023-10-29T06:45:41.579Z,268.00
2023-10-29T06:46:41.593Z,276.00
2023-10-29T06:47:41.568Z,304.00
2023-10-29T06:48:42.543Z,324.00
2023-10-29T06:49:41.515Z,344.00
2023-10-29T06:50:41.487Z,324.00
2023-10-29T06:51:41.479Z,304.00
2023-10-29T06:52:41.489Z,304.00
2023-10-29T06:53:41.529Z,344.00
2023-10-29T06:54:42.442Z,396.00
2023-10-29T06:55:41.458Z,420.00
2023-10-29T06:56:41.455Z,380.00
2023-10-29T06:57:41.409Z,360.00
2023-10-29T06:58:41.383Z,356.00
2023-10-29T06:59:41.529Z,360.00
2023-10-29T07:00:42.396Z,420.00
2023-10-29T07:01:41.345Z,468.00
2023-10-29T07:02:41.463Z,484.00
2023-10-29T07:03:41.485Z,484.00
2023-10-29T07:04:41.410Z,480.00
2023-10-29T07:05:41.316Z,504.00
2023-10-29T07:06:43.725Z,516.00
2023-10-29T07:07:41.307Z,532.00
2023-10-29T07:08:41.261Z,532.00
2023-10-29T07:09:41.271Z,528.00
2023-10-29T07:10:41.505Z,460.00
2023-10-29T07:11:41.299Z,440.00
2023-10-29T07:12:42.322Z,440.00
2023-10-29T07:13:41.185Z,496.00
2023-10-29T07:14:41.227Z,580.00
2023-10-29T07:15:41.295Z,636.00
2023-10-29T07:16:41.210Z,644.00
2023-10-29T07:17:42.321Z,660.00
2023-10-29T07:18:41.197Z,676.00
2023-10-29T07:19:41.198Z,652.00
2023-10-29T07:20:41.156Z,660.00
2023-10-29T07:21:41.106Z,640.00
2023-10-29T07:22:41.155Z,600.00
2023-10-29T07:23:42.048Z,596.00
2023-10-29T07:24:41.059Z,604.00
2023-10-29T07:25:41.207Z,608.00
2023-10-29T07:26:41.176Z,592.00
2023-10-29T07:27:41.032Z,580.00
2023-10-29T07:28:41.065Z,564.00
2023-10-29T07:29:41.992Z,544.00
2023-10-29T07:30:41.118Z,536.00
2023-10-29T07:31:41.085Z,540.00
2023-10-29T07:32:41.061Z,556.00
2023-10-29T07:33:41.007Z,564.00
2023-10-29T07:34:40.939Z,580.00
2023-10-29T07:35:41.915Z,576.00
2023-10-29T07:36:40.988Z,556.00
2023-10-29T07:37:40.911Z,540.00
2023-10-29T07:38:40.902Z,564.00
2023-10-29T07:39:40.955Z,596.00
2023-10-29T07:40:41.876Z,588.00
2023-10-29T07:41:40.835Z,572.00
2023-10-29T07:42:41.037Z,576.00
2023-10-29T07:43:40.884Z,528.00
2023-10-29T07:44:40.919Z,476.00
2023-10-29T07:45:41.747Z,440.00
2023-10-29T07:46:40.809Z,436.00
2023-10-29T07:47:40.813Z,412.00
2023-10-29T07:48:40.829Z,372.00
2023-10-29T07:49:40.720Z,348.00
2023-10-29T07:50:40.800Z,336.00
2023-10-29T07:51:41.727Z,336.00
2023-10-29T07:52:40.704Z,360.00
2023-10-29T07:53:40.747Z,400.00
2023-10-29T07:54:40.796Z,420.00
2023-10-29T07:55:40.795Z,396.00
2023-10-29T07:56:40.697Z,332.00
2023-10-29T07:57:41.583Z,328.00
2023-10-29T07:58:40.622Z,336.00
2023-10-29T07:59:40.639Z,412.00
2023-10-29T08:00:40.608Z,420.00
2023-10-29T08:01:40.686Z,396.00
2023-10-29T08:02:41.557Z,396.00
2023-10-29T08:03:40.702Z,440.00
2023-10-29T08:04:40.553Z,600.00
2023-10-29T08:05:40.608Z,584.00
2023-10-29T08:06:40.506Z,632.00
2023-10-29T08:07:41.514Z,712.00
2023-10-29T08:08:40.530Z,728.00
2023-10-29T08:09:40.460Z,740.00
2023-10-29T08:10:40.556Z,676.00
2023-10-29T08:11:40.498Z,892.00
2023-10-29T08:12:40.475Z,860.00
2023-10-29T08:13:41.374Z,840.00
2023-10-29T08:14:40.429Z,804.00
2023-10-29T08:15:43.030Z,924.00
2023-10-29T08:16:40.401Z,1200.00
2023-10-29T08:17:40.447Z,852.00
2023-10-29T08:18:40.737Z,932.00
2023-10-29T08:19:41.289Z,812.00
2023-10-29T08:20:40.376Z,880.00
2023-10-29T08:21:40.345Z,868.00
2023-10-29T08:22:40.319Z,904.00
2023-10-29T08:23:40.359Z,904.00
2023-10-29T08:24:41.248Z,812.00
2023-10-29T08:25:40.343Z,916.00
2023-10-29T08:26:40.293Z,1008.00
2023-10-29T08:27:40.274Z,992.00
2023-10-29T08:28:40.330Z,1008.00
2023-10-29T08:29:40.308Z,972.00
2023-10-29T08:30:41.368Z,1004.00
2023-10-29T08:31:40.292Z,1060.00
2023-10-29T08:32:40.255Z,1072.00
2023-10-29T08:33:40.325Z,1108.00
2023-10-29T08:34:40.153Z,1244.00
2023-10-29T08:35:45.807Z,1300.00
2023-10-29T08:36:40.153Z,1292.00
2023-10-29T08:37:40.107Z,1356.00
2023-10-29T08:38:40.172Z,1396.00
2023-10-29T08:39:40.137Z,1368.00
2023-10-29T08:40:40.083Z,1440.00
2023-10-29T08:41:41.051Z,1436.00
2023-10-29T08:42:40.178Z,1632.00
2023-10-29T08:43:40.088Z,1704.00
2023-10-29T08:44:40.098Z,1568.00
2023-10-29T08:45:42.710Z,1476.00
2023-10-29T08:46:40.957Z,1504.00
2023-10-29T08:47:40.099Z,1580.00
2023-10-29T08:48:40.067Z,1948.00
2023-10-29T08:49:40.006Z,2348.00
2023-10-29T08:50:40.049Z,2796.00
2023-10-29T08:51:40.019Z,3276.00
2023-10-29T08:52:45.156Z,3668.00
2023-10-29T08:53:40.026Z,3756.00
2023-10-29T08:54:39.955Z,3160.00
2023-10-29T08:55:39.896Z,3176.00
2023-10-29T08:56:39.947Z,3172.00
2023-10-29T08:57:40.928Z,3300.00
2023-10-29T08:58:39.923Z,3436.00
2023-10-29T08:59:40.134Z,3584.00
2023-10-29T09:00:46.392Z,3736.00
2023-10-29T09:01:41.374Z,3900.00
2023-10-29T09:02:39.977Z,4076.00
2023-10-29T09:03:40.903Z,4180.00
2023-10-29T09:04:39.833Z,4228.00
2023-10-29T09:05:39.825Z,4204.00
2023-10-29T09:06:39.779Z,4108.00
2023-10-29T09:07:39.777Z,4040.00
2023-10-29T09:08:39.754Z,4024.00
2023-10-29T09:09:40.684Z,4040.00
2023-10-29T09:10:39.758Z,4096.00
2023-10-29T09:11:39.765Z,4152.00
2023-10-29T09:12:40.468Z,4060.00
2023-10-29T09:13:39.696Z,3780.00
2023-10-29T09:14:40.383Z,3528.00
2023-10-29T09:15:40.771Z,3308.00
2023-10-29T09:16:39.672Z,3092.00
2023-10-29T09:17:39.915Z,2868.00
2023-10-29T09:18:39.682Z,2708.00
2023-10-29T09:19:39.638Z,2688.00
2023-10-29T09:20:39.640Z,2780.00
2023-10-29T09:21:40.602Z,2968.00
2023-10-29T09:22:39.581Z,3216.00
2023-10-29T09:23:39.727Z,3436.00
2023-10-29T09:24:39.588Z,3612.00
2023-10-29T09:25:39.677Z,3828.00
2023-10-29T09:26:39.585Z,3952.00
2023-10-29T09:27:40.418Z,3988.00
2023-10-29T09:28:39.507Z,4104.00
2023-10-29T09:29:39.542Z,4312.00
2023-10-29T09:30:39.557Z,4528.00
2023-10-29T09:31:39.895Z,4616.00
2023-10-29T09:32:39.534Z,4528.00
2023-10-29T09:33:40.532Z,4476.00
2023-10-29T09:34:39.449Z,4436.00
2023-10-29T09:35:40.433Z,4388.00
2023-10-29T09:36:39.472Z,4324.00
2023-10-29T09:37:39.376Z,4256.00
2023-10-29T09:38:39.617Z,4164.00
2023-10-29T09:39:40.254Z,4028.00
2023-10-29T09:40:39.591Z,3888.00
2023-10-29T09:41:39.562Z,3668.00
2023-10-29T09:42:39.334Z,3368.00
2023-10-29T09:43:39.740Z,3052.00
2023-10-29T09:44:40.057Z,2636.00
2023-10-29T09:45:40.215Z,2244.00
2023-10-29T09:46:39.309Z,2156.00
2023-10-29T09:47:39.312Z,2400.00
2023-10-29T09:48:39.323Z,2476.00
2023-10-29T09:49:39.256Z,2552.00
2023-10-29T09:50:39.286Z,2352.00
2023-10-29T09:51:40.183Z,2084.00
2023-10-29T09:52:39.167Z,2096.00
2023-10-29T09:53:39.296Z,2376.00
2023-10-29T09:54:39.227Z,2300.00
2023-10-29T09:55:39.188Z,2352.00
2023-10-29T09:56:40.083Z,2824.00
2023-10-29T09:57:39.131Z,2868.00
2023-10-29T09:58:39.160Z,2792.00
2023-10-29T09:59:39.241Z,2752.00
2023-10-29T10:00:39.079Z,2836.00
2023-10-29T10:01:55.400Z,2624.00
2023-10-29T10:02:40.763Z,2300.00
2023-10-29T10:03:39.363Z,2060.00
2023-10-29T10:04:40.174Z,2052.00
2023-10-29T10:05:39.026Z,2156.00
2023-10-29T10:06:40.010Z,2160.00
2023-10-29T10:07:38.977Z,2468.00
2023-10-29T10:08:39.001Z,2584.00
2023-10-29T10:09:39.030Z,2368.00
2023-10-29T10:10:38.968Z,2220.00
2023-10-29T10:11:39.977Z,2404.00
2023-10-29T10:12:39.070Z,2356.00
2023-10-29T10:13:38.979Z,2468.00
2023-10-29T10:14:38.965Z,2536.00
2023-10-29T10:15:38.897Z,2488.00
2023-10-29T10:16:38.954Z,2476.00
2023-10-29T10:17:40.618Z,2440.00
2023-10-29T10:18:38.885Z,2400.00
2023-10-29T10:19:39.715Z,2376.00
2023-10-29T10:20:38.897Z,2420.00
2023-10-29T10:21:39.019Z,2540.00
2023-10-29T10:22:39.910Z,2676.00
2023-10-29T10:23:38.826Z,2624.00
2023-10-29T10:24:38.929Z,2260.00
2023-10-29T10:25:38.804Z,1776.00
2023-10-29T10:26:38.861Z,1524.00
2023-10-29T10:27:39.666Z,1388.00
2023-10-29T10:28:38.760Z,1344.00
2023-10-29T10:29:38.989Z,1584.00
2023-10-29T10:30:38.742Z,1956.00
2023-10-29T10:31:38.728Z,2072.00
2023-10-29T10:32:38.906Z,1956.00
2023-10-29T10:33:39.632Z,2248.00
2023-10-29T10:34:38.622Z,2332.00
2023-10-29T10:35:38.696Z,2416.00
2023-10-29T10:36:38.704Z,2620.00
2023-10-29T10:37:38.664Z,2720.00
2023-10-29T10:38:39.737Z,2744.00
2023-10-29T10:39:38.587Z,2660.00
2023-10-29T10:40:38.543Z,2396.00
2023-10-29T10:41:38.611Z,2196.00
2023-10-29T10:42:38.581Z,2144.00
2023-10-29T10:43:38.585Z,2184.00
2023-10-29T10:44:39.493Z,1936.00
2023-10-29T10:45:38.632Z,1764.00
2023-10-29T10:46:38.472Z,1660.00
2023-10-29T10:47:38.572Z,1636.00
2023-10-29T10:48:38.844Z,1804.00
2023-10-29T10:49:39.671Z,2236.00
2023-10-29T10:50:38.468Z,2724.00
2023-10-29T10:51:38.485Z,2880.00
2023-10-29T10:52:38.788Z,3108.00
2023-10-29T10:53:39.597Z,3180.00
2023-10-29T10:54:39.457Z,2972.00
2023-10-29T10:55:54.800Z,2732.00
2023-10-29T10:56:39.379Z,2800.00
2023-10-29T10:57:38.500Z,3136.00
2023-10-29T10:58:38.361Z,3076.00
2023-10-29T10:59:38.544Z,3036.00
2023-10-29T11:00:39.247Z,3744.00
2023-10-29T11:01:38.292Z,4684.00
2023-10-29T11:02:38.581Z,5756.00
2023-10-29T11:03:38.548Z,6964.00
2023-10-29T11:04:38.522Z,7264.00
2023-10-29T11:05:40.276Z,7428.00
2023-10-29T11:06:39.006Z,7472.00
2023-10-29T11:07:38.224Z,9236.00
2023-10-29T11:08:38.268Z,10364.00
2023-10-29T11:09:38.346Z,9428.00
2023-10-29T11:10:38.208Z,8604.00
2023-10-29T11:11:39.188Z,8068.00
2023-10-29T11:12:38.279Z,7428.00
2023-10-29T11:13:38.208Z,6688.00
2023-10-29T11:14:38.177Z,7304.00
2023-10-29T11:15:38.384Z,7904.00
2023-10-29T11:16:39.166Z,7972.00
2023-10-29T11:17:38.115Z,7408.00
2023-10-29T11:18:38.152Z,6724.00
2023-10-29T11:19:38.769Z,6184.00
2023-10-29T11:20:38.046Z,5860.00
2023-10-29T11:21:38.080Z,5332.00
2023-10-29T11:22:39.071Z,4620.00
2023-10-29T11:23:38.022Z,4264.00
2023-10-29T11:24:40.550Z,4204.00
2023-10-29T11:25:38.083Z,4324.00
2023-10-29T11:26:38.028Z,4696.00
2023-10-29T11:27:38.535Z,5248.00
2023-10-29T11:28:38.888Z,5316.00
2023-10-29T11:29:38.076Z,5124.00
2023-10-29T11:30:37.995Z,5068.00
2023-10-29T11:31:37.977Z,5044.00
2023-10-29T11:32:38.196Z,4968.00
2023-10-29T11:33:37.924Z,4868.00
2023-10-29T11:34:38.789Z,4800.00
2023-10-29T11:35:37.928Z,4796.00
2023-10-29T11:36:37.866Z,4808.00
2023-10-29T11:37:37.885Z,4816.00
2023-10-29T11:38:37.902Z,4924.00
2023-10-29T11:39:44.100Z,4956.00
2023-10-29T11:40:37.820Z,4960.00
2023-10-29T11:43:38.951Z,4852.00
2023-10-29T11:44:38.957Z,4740.00
2023-10-29T11:45:38.878Z,4680.00
2023-10-29T11:46:39.164Z,4344.00
2023-10-29T11:47:38.971Z,3836.00
2023-10-29T11:48:39.078Z,3740.00
2023-10-29T11:49:45.151Z,4072.00
2023-10-29T11:50:38.869Z,4852.00
2023-10-29T11:51:38.768Z,5408.00
2023-10-29T11:52:38.824Z,5856.00
2023-10-29T11:53:39.092Z,5528.00
2023-10-29T11:54:39.750Z,5152.00
2023-10-29T11:55:38.827Z,4912.00
2023-10-29T11:56:38.741Z,4884.00
2023-10-29T11:57:38.763Z,4896.00
2023-10-29T11:58:38.976Z,5152.00
2023-10-29T11:59:38.699Z,5556.00
2023-10-29T12:00:39.704Z,6000.00
2023-10-29T12:01:40.997Z,5680.00
2023-10-29T12:02:41.656Z,5116.00
2023-10-29T12:03:38.930Z,4800.00
2023-10-29T12:04:38.736Z,4704.00
2023-10-29T12:05:38.875Z,5352.00
2023-10-29T12:06:39.628Z,5824.00
2023-10-29T12:07:38.699Z,6284.00
2023-10-29T12:08:38.671Z,7108.00
2023-10-29T12:09:38.747Z,8060.00
2023-10-29T12:10:38.829Z,8960.00
2023-10-29T12:11:39.429Z,10768.00
2023-10-29T12:12:40.496Z,11096.00
2023-10-29T12:13:38.538Z,10344.00
2023-10-29T12:14:38.515Z,9260.00
2023-10-29T12:15:38.685Z,8636.00
2023-10-29T12:16:38.558Z,10112.00
2023-10-29T12:17:39.562Z,10756.00
2023-10-29T12:18:38.569Z,10400.00
2023-10-29T12:19:38.516Z,9784.00
2023-10-29T12:20:39.281Z,8936.00
2023-10-29T12:21:38.445Z,7856.00
2023-10-29T12:22:39.370Z,7292.00
2023-10-29T12:23:38.443Z,7572.00
2023-10-29T12:24:38.394Z,7292.00
2023-10-29T12:25:38.368Z,8200.00
2023-10-29T12:26:39.366Z,8040.00
2023-10-29T12:27:39.413Z,6844.00
2023-10-29T12:28:38.317Z,6904.00
2023-10-29T12:29:38.373Z,7236.00
2023-10-29T12:30:38.516Z,7388.00
2023-10-29T12:31:38.337Z,7096.00
2023-10-29T12:32:38.649Z,6232.00
2023-10-29T12:33:39.206Z,5544.00
2023-10-29T12:34:38.243Z,4792.00
2023-10-29T12:35:38.190Z,4280.00
2023-10-29T12:36:38.287Z,4072.00
2023-10-29T12:37:38.207Z,4920.00
2023-10-29T12:38:39.279Z,5044.00
2023-10-29T12:39:38.175Z,5388.00
2023-10-29T12:40:38.180Z,5212.00
2023-10-29T12:41:38.153Z,4916.00
2023-10-29T12:42:38.237Z,5056.00
2023-10-29T12:43:38.323Z,4696.00
2023-10-29T12:44:39.094Z,4844.00